Time;durP1;ratioP1;P1;durP2;ratioP2;P2;SDS_P1;SDS_P2;PMS_P1;PMS_P2;Temp;Humidity;BMP_temperature;BMP_pressure;BME280_temperature;BME280_humidity;BME280_pressure;Samples;Min_cycle;Max_cycle;Signal;HPM_P1;HPM_P2
2021/04/22 00:02:08;;;;;;;0.80;0.65;;;;;;;7.07;52.74;101156.25;6309074;22;20098;-76
2021/04/22 00:05:05;;;;;;;2.05;0.95;;;;;;;7.00;51.92;101155.47;6278518;22;20391;-77
2021/04/22 00:07:42;;;;;;;2.35;0.80;;;;;;;6.95;53.37;101160.75;6283116;22;20090;-77
2021/04/22 00:11:13;;;;;;;;;;;;;;;;;;;;;
2021/04/22 00:14:00;;;;;;;;;;;;;;;;;;;;;
2021/04/22 00:16:44;;;;;;;1.23;0.98;;;;;;;6.75;52.69;101169.09;6262757;22;20011;-76
2021/04/22 00:19:09;;;;;;;1.88;0.40;;;;;;;6.86;53.18;101194.72;6291854;22;20003;-77
2021/04/22 00:21:37;;;;;;;1.35;0.65;;;;;;;6.70;53.18;101188.81;6285470;22;20061;-75
2021/04/22 00:24:03;;;;;;;1.55;0.70;;;;;;;6.74;53.38;101198.16;6288915;22;19999;-77
2021/04/22 00:26:39;;;;;;;0.65;0.50;;;;;;;6.64;53.27;101184.22;6284442;22;20030;-75
2021/04/22 00:29:15;;;;;;;;;;;;;;;;;;;;;
2021/04/22 00:31:40;;;;;;;1.67;0.68;;;;;;;6.64;54.69;101206.81;6313987;22;20313;-75
2021/04/22 00:34:06;;;;;;;1.00;0.68;;;;;;;6.50;53.56;101193.53;6311040;22;20002;-74
2021/04/22 00:36:59;;;;;;;0.68;0.50;;;;;;;6.40;53.81;101197.56;6312946;22;20015;-74
2021/04/22 00:39:24;;;;;;;4.20;0.52;;;;;;;6.27;54.18;101189.50;6257729;22;20011;-76
2021/04/22 00:42:00;;;;;;;0.68;0.60;;;;;;;6.36;54.60;101218.06;6260126;22;20318;-76
2021/04/22 00:44:48;;;;;;;1.38;0.95;;;;;;;6.10;54.21;101190.03;6281355;22;20421;-75
2021/04/22 00:47:17;;;;;;;0.60;0.50;;;;;;;6.25;54.30;101229.63;6279998;22;20010;-78
2021/04/22 00:49:43;;;;;;;2.17;0.30;;;;;;;6.07;54.57;101206.75;6273729;22;20508;-75
2021/04/22 00:52:12;;;;;;;1.20;0.60;;;;;;;5.88;54.45;101184.03;6243784;22;20008;-76
2021/04/22 00:54:57;;;;;;;0.65;0.65;;;;;;;5.90;54.94;101192.81;6219758;22;20012;-75
2021/04/22 00:57:26;;;;;;;0.30;0.30;;;;;;;5.85;55.03;101200.75;6249765;22;20333;-76
2021/04/22 01:00:04;;;;;;;;;;;;;;;;;;;;;
2021/04/22 01:02:57;;;;;;;;;;;;;;;;;;;;;
2021/04/22 01:05:39;;;;;;;0.22;0.22;;;;;;;5.81;54.80;101223.13;6286512;22;20003;-75
2021/04/22 01:08:15;;;;;;;;;;;;;;;;;;;;;
2021/04/22 01:10:56;;;;;;;;;;;;;;;;;;;;;
2021/04/22 01:13:29;;;;;;;0.50;0.40;;;;;;;5.49;54.94;101182.31;6289551;22;20010;-76
2021/04/22 01:16:00;;;;;;;0.60;0.60;;;;;;;5.76;55.35;101232.75;6244276;22;20007;-77
2021/04/22 01:18:32;;;;;;;0.45;0.40;;;;;;;5.66;55.22;101226.09;6267466;22;20062;-76
2021/04/22 01:21:01;;;;;;;0.60;0.60;;;;;;;5.47;54.97;101200.69;6281780;22;20011;-76
2021/04/22 01:24:06;;;;;;;;;;;;;;;;;;;;;
2021/04/22 01:26:45;;;;;;;;;;;;;;;;;;;;;
2021/04/22 01:29:31;;;;;;;1.17;0.90;;;;;;;5.69;55.24;101237.34;6278649;22;20369;-76
2021/04/22 01:32:12;;;;;;;0.68;0.50;;;;;;;5.39;55.81;101199.06;6277697;22;20070;-77
2021/04/22 01:34:49;;;;;;;;;;;;;;;;;;;;;
2021/04/22 01:37:25;;;;;;;;;;;;;;;;;;;;;
2021/04/22 01:40:03;;;;;;;1.13;0.55;;;;;;;5.31;56.16;101202.81;6279116;22;20087;-73
2021/04/22 01:42:39;;;;;;;1.33;0.70;;;;;;;5.32;56.27;101212.63;6250078;22;20000;-76
2021/04/22 01:45:13;;;;;;;2.70;0.80;;;;;;;5.52;55.97;101247.00;6251403;22;20016;-74
2021/04/22 01:47:52;;;;;;;2.08;0.60;;;;;;;5.44;56.21;101244.53;6276475;22;20003;-75
2021/04/22 01:50:24;;;;;;;0.30;0.30;;;;;;;5.42;56.30;101248.28;6306931;22;20007;-74
2021/04/22 01:52:51;;;;;;;0.38;0.20;;;;;;;5.33;56.09;101244.13;6281504;22;20003;-73
2021/04/22 01:55:22;;;;;;;0.80;0.60;;;;;;;5.32;55.79;101245.19;6281090;22;20073;-74
2021/04/22 01:57:50;;;;;;;0.40;0.40;;;;;;;5.15;56.55;101233.91;6308066;22;20074;-74
2021/04/22 02:00:26;;;;;;;1.75;0.20;;;;;;;5.04;56.01;101219.13;6312767;22;20322;-75
2021/04/22 02:03:07;;;;;;;;;;;;;;;;;;;;;
2021/04/22 02:06:21;;;;;;;0.50;0.20;;;;;;;4.87;55.83;101212.47;6318156;22;20405;-77
2021/04/22 02:08:47;;;;;;;0.63;0.30;;;;;;;5.06;55.77;101255.00;6270155;22;20005;-76
2021/04/22 02:11:51;;;;;;;;;;;;;;;;;;;;;
2021/04/22 02:14:16;;;;;;;1.25;0.35;;;;;;;4.73;56.24;101217.03;6289690;22;20378;-76
2021/04/22 02:16:44;;;;;;;1.25;0.40;;;;;;;4.79;56.42;101231.63;6315192;22;19995;-76
2021/04/22 02:19:15;;;;;;;0.50;0.30;;;;;;;4.71;56.94;101236.22;6305149;22;20456;-78
2021/04/22 02:21:41;;;;;;;0.88;0.50;;;;;;;4.68;56.58;101230.38;6280134;22;20441;-78
2021/04/22 02:24:07;;;;;;;0.40;0.40;;;;;;;4.76;56.89;101253.72;6279534;22;20007;-77
2021/04/22 02:26:34;;;;;;;0.30;0.30;;;;;;;4.67;57.20;101244.97;6280419;22;20008;-76
2021/04/22 02:29:06;;;;;;;2.25;0.38;;;;;;;4.63;56.74;101238.28;6281983;22;20014;-76
2021/04/22 02:31:54;;;;;;;0.88;0.70;;;;;;;4.52;57.02;101226.19;6253453;22;20073;-77
2021/04/22 02:34:22;;;;;;;0.40;0.40;;;;;;;4.45;57.21;101219.94;6306564;22;20005;-77
2021/04/22 02:37:34;;;;;;;6.00;1.02;;;;;;;4.48;57.29;101219.53;6278433;22;20009;-78
2021/04/22 02:40:00;;;;;;;4.32;0.70;;;;;;;4.64;58.19;101251.63;6263121;22;20010;-79
2021/04/22 02:42:33;;;;;;;1.63;0.52;;;;;;;4.48;57.84;101220.38;6308494;22;20207;-78
2021/04/22 02:45:01;;;;;;;0.77;0.70;;;;;;;4.61;58.17;101238.50;6277432;22;19999;-78
2021/04/22 02:47:56;;;;;;;4.60;0.50;;;;;;;4.50;58.22;101223.69;6278040;22;20011;-77
2021/04/22 02:51:04;;;;;;;;;;;;;;;;;;;;;
2021/04/22 02:53:32;;;;;;;0.73;0.38;;;;;;;4.49;57.53;101229.31;6276100;22;20450;-77
2021/04/22 02:56:08;;;;;;;;;;;;;;;;;;;;;
2021/04/22 03:01:42;;;;;;;;;;;;;;;;;;;;;
2021/04/22 03:04:10;;;;;;;1.95;0.40;;;;;;;4.37;58.13;101224.50;6275368;22;20083;-76
2021/04/22 03:06:36;;;;;;;0.90;0.73;;;;;;;4.40;58.25;101233.28;6273746;22;20010;-75
2021/04/22 03:12:04;;;;;;;2.03;0.60;;;;;;;4.25;57.60;101226.16;6249232;22;20391;-74
2021/04/22 03:14:32;;;;;;;2.00;0.50;;;;;;;4.32;58.33;101237.84;6246307;22;20006;-75
2021/04/22 03:17:27;;;;;;;2.90;1.02;;;;;;;4.25;58.32;101242.41;6257568;22;19992;-75
2021/04/22 03:20:02;;;;;;;3.40;0.50;;;;;;;4.35;57.79;101259.09;6262158;22;20058;-75
2021/04/22 03:25:29;;;;;;;1.83;0.55;;;;;;;4.17;58.62;101250.69;6240473;22;20414;-76
2021/04/22 03:28:15;;;;;;;;;;;;;;;;;;;;;
2021/04/22 03:30:59;;;;;;;;;;;;;;;;;;;;;
2021/04/22 03:33:36;;;;;;;2.63;0.50;;;;;;;3.93;58.52;101228.56;6271926;22;20091;-77
2021/04/22 03:36:02;;;;;;;0.85;0.40;;;;;;;3.93;58.45;101238.53;6239290;22;20029;-77
2021/04/22 03:39:17;;;;;;;;;;;;;;;;;;;;;
2021/04/22 03:45:39;;;;;;;;;;;;;;;;;;;;;
2021/04/22 03:48:14;;;;;;;2.45;0.80;;;;;;;3.84;58.62;101241.41;6271893;22;20090;-77
2021/04/22 03:51:34;;;;;;;3.55;0.73;;;;;;;3.79;58.74;101234.94;6227531;22;20030;-76
2021/04/22 03:53:33;;;;;;;2.55;0.68;;;;;;;3.78;58.97;101230.56;6245271;22;20298;-77
2021/04/22 03:56:29;;;;;;;1.48;0.40;;;;;;;3.83;58.16;101261.38;6282462;22;20003;-76
2021/04/22 03:58:54;;;;;;;1.05;0.25;;;;;;;3.72;59.12;101240.31;6275844;22;20499;-71
2021/04/22 04:01:20;;;;;;;1.58;0.40;;;;;;;3.82;58.66;101256.19;6277982;22;20027;-74
2021/04/22 04:03:47;;;;;;;0.75;0.47;;;;;;;3.70;59.17;101233.44;6250141;22;20060;-74
2021/04/22 04:06:20;;;;;;;0.80;0.50;;;;;;;3.62;59.25;101232.59;6307926;22;20404;-75
2021/04/22 04:08:48;;;;;;;1.90;0.60;;;;;;;3.59;59.17;101227.56;6307651;22;20010;-76
2021/04/22 04:11:13;;;;;;;1.63;0.75;;;;;;;3.74;58.89;101253.63;6306388;22;20060;-75
2021/04/22 04:13:39;;;;;;;0.50;0.28;;;;;;;3.77;59.33;101256.78;6303093;22;20003;-75
2021/04/22 04:16:24;;;;;;;1.23;0.43;;;;;;;3.73;59.57;101257.41;6304436;22;20372;-76
2021/04/22 04:18:54;;;;;;;3.45;0.73;;;;;;;3.56;59.25;101237.94;6305093;22;20057;-78
2021/04/22 04:21:19;;;;;;;1.65;0.52;;;;;;;3.66;59.29;101268.16;6309280;22;20437;-76
2021/04/22 04:23:44;;;;;;;0.98;0.60;;;;;;;3.49;59.67;101243.31;6301743;22;19999;-76
2021/04/22 04:26:10;;;;;;;1.40;0.38;;;;;;;3.50;59.43;101244.97;6307056;22;20000;-77
2021/04/22 04:28:35;;;;;;;1.70;0.38;;;;;;;3.48;59.52;101247.06;6304616;22;20302;-76
2021/04/22 04:31:01;;;;;;;1.10;0.45;;;;;;;3.41;59.78;101240.78;6248616;22;20029;-74
2021/04/22 04:33:26;;;;;;;1.08;0.52;;;;;;;3.45;59.84;101253.69;6277791;22;20003;-76
2021/04/22 04:35:52;;;;;;;1.45;0.65;;;;;;;3.43;59.76;101260.31;6273910;22;20456;-76
2021/04/22 04:38:17;;;;;;;6.28;0.77;;;;;;;3.26;59.46;101249.81;6277932;22;20082;-76
2021/04/22 04:40:43;;;;;;;0.60;0.22;;;;;;;3.37;59.52;101261.13;6284864;22;20090;-77
2021/04/22 04:43:11;;;;;;;2.15;0.68;;;;;;;3.31;60.66;101263.59;6283893;22;20011;-77
2021/04/22 04:45:37;;;;;;;4.60;0.40;;;;;;;3.31;59.72;101279.81;6308902;22;20003;-74
2021/04/22 04:48:03;;;;;;;3.72;0.57;;;;;;;3.18;59.57;101263.47;6250566;22;20029;-77
2021/04/22 04:50:28;;;;;;;0.98;0.30;;;;;;;3.20;59.98;101277.66;6285889;22;20015;-76
2021/04/22 04:52:54;;;;;;;0.25;0.20;;;;;;;3.15;60.75;101277.38;6313591;22;20019;-76
2021/04/22 04:55:19;;;;;;;0.20;0.20;;;;;;;3.07;60.41;101282.94;6318472;22;20007;-76
2021/04/22 04:57:47;;;;;;;0.65;0.30;;;;;;;3.04;60.47;101283.31;6256410;22;20011;-78
2021/04/22 05:00:15;;;;;;;0.75;0.30;;;;;;;2.96;60.49;101276.19;6255881;22;20004;-77
2021/04/22 05:02:52;;;;;;;0.68;0.10;;;;;;;2.86;60.48;101265.75;6283966;22;19995;-77
2021/04/22 05:05:18;;;;;;;0.55;0.10;;;;;;;2.99;60.86;101296.59;6279013;22;20714;-76
2021/04/22 05:07:44;;;;;;;1.73;0.30;;;;;;;2.84;60.69;101278.59;6275761;22;20007;-76
2021/04/22 05:10:10;;;;;;;0.70;0.20;;;;;;;2.81;59.99;101278.97;6280705;22;20426;-76
2021/04/22 05:12:36;;;;;;;0.43;0.20;;;;;;;2.91;60.13;101300.28;6257395;22;20007;-77
2021/04/22 05:15:06;;;;;;;0.35;0.17;;;;;;;2.72;60.97;101258.53;6319371;22;20023;-77
2021/04/22 05:17:32;;;;;;;1.00;0.30;;;;;;;2.72;60.46;101270.16;6286314;22;20551;-78
2021/04/22 05:20:20;;;;;;;5.15;0.32;;;;;;;2.92;60.05;101289.28;6264838;22;20045;-77
2021/04/22 05:23:07;;;;;;;0.47;0.40;;;;;;;2.77;61.10;101266.88;6269438;22;20007;-76
2021/04/22 05:25:52;;;;;;;;;;;;;;;;;;;;;
2021/04/22 05:28:38;;;;;;;1.38;0.50;;;;;;;3.03;60.27;101306.00;6295911;22;20027;-79
2021/04/22 05:31:13;;;;;;;;;;;;;;;;;;;;;
2021/04/22 05:33:59;;;;;;;0.63;0.25;;;;;;;3.20;61.18;101326.31;6310209;22;20019;-79
2021/04/22 05:36:30;;;;;;;3.92;0.30;;;;;;;3.16;61.21;101307.97;6317687;22;19999;-78
2021/04/22 05:38:58;;;;;;;1.58;0.73;;;;;;;3.17;61.09;101305.06;6258647;22;20010;-77
2021/04/22 05:41:33;;;;;;;2.25;0.45;;;;;;;3.27;61.02;101324.50;6286674;22;20422;-78
2021/04/22 05:44:01;;;;;;;1.58;0.60;;;;;;;3.37;61.43;101332.25;6281943;22;20003;-77
2021/04/22 05:46:29;;;;;;;3.25;0.82;;;;;;;3.44;60.37;101337.72;6258587;22;20090;-78
2021/04/22 05:48:55;;;;;;;2.03;0.55;;;;;;;3.49;60.43;101340.69;6281987;22;20011;-73
2021/04/22 05:51:23;;;;;;;4.35;0.52;;;;;;;3.40;61.17;101320.22;6274500;22;20015;-72
2021/04/22 05:53:48;;;;;;;1.00;0.45;;;;;;;3.54;61.18;101337.38;6248073;22;20031;-72
2021/04/22 05:56:14;;;;;;;4.90;0.55;;;;;;;3.58;60.32;101339.50;6249760;22;20532;-73
2021/04/22 05:58:39;;;;;;;6.07;0.40;;;;;;;3.65;61.29;101345.78;6302787;22;20003;-73
2021/04/22 06:01:05;;;;;;;3.78;0.60;;;;;;;3.71;60.86;101344.16;6306087;22;20031;-72
2021/04/22 06:03:31;;;;;;;0.47;0.15;;;;;;;3.78;61.18;101341.47;6301196;22;20390;-72
2021/04/22 06:06:36;;;;;;;;;;;;;;;;;;;;;
2021/04/22 06:09:02;;;;;;;0.40;0.30;;;;;;;3.88;60.96;101328.44;6288068;22;20042;-78
2021/04/22 06:11:47;;;;;;;;;;;;;;;;;;;;;
2021/04/22 06:14:18;;;;;;;0.52;0.28;;;;;;;4.14;60.07;101356.69;6316369;22;20030;-78
2021/04/22 06:16:59;;;;;;;3.00;0.75;;;;;;;4.12;60.36;101324.41;6258723;22;20023;-76
2021/04/22 06:19:38;;;;;;;;;;;;;;;;;;;;;
2021/04/22 06:22:14;;;;;;;1.17;0.55;;;;;;;4.31;60.29;101311.97;6311176;22;20497;-77
2021/04/22 06:24:39;;;;;;;2.75;1.15;;;;;;;4.44;59.93;101315.75;6303785;22;20022;-78
2021/04/22 06:27:05;;;;;;;1.45;0.63;;;;;;;4.68;59.96;101347.72;6311601;22;20755;-74
2021/04/22 06:29:36;;;;;;;0.82;0.43;;;;;;;4.88;60.35;101355.09;6282170;22;20418;-77
2021/04/22 06:32:33;;;;;;;0.82;0.80;;;;;;;4.98;59.52;101344.69;6313213;22;20423;-75
2021/04/22 06:34:59;;;;;;;4.90;0.40;;;;;;;4.91;59.40;101324.84;6278091;22;20009;-77
2021/04/22 06:37:53;;;;;;;1.00;0.40;;;;;;;5.04;58.97;101327.56;6282608;22;20317;-77
2021/04/22 06:40:23;;;;;;;4.78;0.90;;;;;;;5.28;59.27;101349.69;6265027;22;20011;-77
2021/04/22 06:43:12;;;;;;;;;;;;;;;;;;;;;
2021/04/22 06:45:40;;;;;;;3.22;1.13;;;;;;;5.60;59.61;101349.91;6307704;22;20350;-77
2021/04/22 06:48:18;;;;;;;;;;;;;;;;;;;;;
2021/04/22 06:50:47;;;;;;;5.30;0.73;;;;;;;5.76;59.11;101335.88;6305973;22;20402;-79
2021/04/22 06:53:22;;;;;;;2.88;0.50;;;;;;;5.86;58.94;101340.06;6280287;22;20014;-75
2021/04/22 06:55:47;;;;;;;3.40;0.60;;;;;;;5.95;58.78;101352.34;6278945;22;19999;-78
2021/04/22 06:58:13;;;;;;;3.38;1.42;;;;;;;6.06;59.14;101368.03;6276645;22;20324;-78
2021/04/22 07:00:42;;;;;;;5.50;1.55;;;;;;;6.03;59.24;101365.72;6280453;22;20592;-77
2021/04/22 07:03:07;;;;;;;3.70;1.58;;;;;;;6.17;59.06;101382.00;6280560;22;20007;-77
2021/04/22 07:05:39;;;;;;;8.43;1.15;;;;;;;6.13;59.34;101369.88;6275465;22;20341;-78
2021/04/22 07:08:08;;;;;;;5.97;1.70;;;;;;;6.16;58.81;101372.97;6309948;22;19999;-81
2021/04/22 07:10:41;;;;;;;1.73;1.25;;;;;;;6.20;58.66;101366.09;6306585;22;20048;-78
2021/04/22 07:13:24;;;;;;;2.40;1.15;;;;;;;6.26;59.21;101353.53;6308742;22;20341;-78
2021/04/22 07:15:55;;;;;;;7.13;1.65;;;;;;;6.35;58.66;101363.13;6305018;22;19999;-78
2021/04/22 07:18:33;;;;;;;;;;;;;;;;;;;;;
2021/04/22 07:21:43;;;;;;;6.82;2.08;;;;;;;6.45;58.85;101359.94;6309507;22;20353;-75
2021/04/22 07:24:17;;;;;;;5.78;1.88;;;;;;;6.65;58.45;101370.72;6299537;22;20485;-75
2021/04/22 07:26:57;;;;;;;9.98;1.98;;;;;;;6.84;58.45;101389.88;6257140;22;20015;-75
2021/04/22 07:29:28;;;;;;;10.77;2.05;;;;;;;6.81;58.60;101380.25;6263779;22;20004;-77
2021/04/22 07:32:03;;;;;;;;;;;;;;;;;;;;;
2021/04/22 07:34:47;;;;;;;;;;;;;;;;;;;;;
2021/04/22 07:37:22;;;;;;;4.72;1.38;;;;;;;6.95;58.21;101370.97;6294525;22;20010;-76
2021/04/22 07:40:18;;;;;;;3.55;1.17;;;;;;;7.23;57.84;101393.38;6296110;22;19998;-76
2021/04/22 07:42:46;;;;;;;5.55;2.17;;;;;;;7.25;57.19;101385.84;6289711;22;20325;-77
2021/04/22 07:46:12;;;;;;;;;;;;;;;;;;;;;
2021/04/22 07:48:44;;;;;;;3.20;1.00;;;;;;;7.51;57.20;101401.13;6308945;22;20418;-78
2021/04/22 07:51:13;;;;;;;6.18;1.38;;;;;;;7.41;56.24;101373.59;6275119;22;20023;-76
2021/04/22 07:53:41;;;;;;;8.50;2.20;;;;;;;7.54;55.72;101388.97;6245760;22;20008;-77
2021/04/22 07:56:19;;;;;;;6.00;1.48;;;;;;;7.55;56.10;101377.00;6224814;22;20000;-76
2021/04/22 07:59:03;;;;;;;4.43;1.83;;;;;;;7.66;56.03;101377.13;6227233;22;20008;-77
2021/04/22 08:02:00;;;;;;;11.68;3.38;;;;;;;7.95;56.05;101412.06;6249376;22;20007;-75
2021/04/22 08:04:25;;;;;;;3.22;1.45;;;;;;;7.89;55.95;101396.63;6267844;22;20018;-76
2021/04/22 08:06:54;;;;;;;8.82;2.25;;;;;;;7.86;55.32;101379.66;6218249;22;19996;-76
2021/04/22 08:09:53;;;;;;;5.85;1.80;;;;;;;7.99;55.17;101386.88;6221790;22;20016;-77
2021/04/22 08:12:29;;;;;;;4.70;1.80;;;;;;;8.07;55.25;101377.56;6245274;22;20038;-77
2021/04/22 08:15:16;;;;;;;7.60;2.28;;;;;;;8.19;54.33;101386.66;6255169;22;20444;-77
2021/04/22 08:17:57;;;;;;;;;;;;;;;;;;;;;
2021/04/22 08:20:52;;;;;;;;;;;;;;;;;;;;;
2021/04/22 08:23:18;;;;;;;5.95;2.25;;;;;;;8.51;53.41;101382.97;6274514;22;20055;-76
2021/04/22 08:26:20;;;;;;;;;;;;;;;;;;;;;
2021/04/22 08:28:52;;;;;;;2.95;1.35;;;;;;;8.80;53.44;101384.06;6275793;22;20420;-76
2021/04/22 08:31:25;;;;;;;12.18;1.30;;;;;;;9.01;53.01;101384.59;6246475;22;20038;-75
2021/04/22 08:34:13;;;;;;;;;;;;;;;;;;;;;
2021/04/22 08:36:45;;;;;;;4.18;1.63;;;;;;;9.45;51.24;101409.78;6271380;22;20074;-77
2021/04/22 08:39:18;;;;;;;5.43;1.85;;;;;;;9.55;52.19;101399.13;6247688;22;20015;-75
2021/04/22 08:42:07;;;;;;;6.18;1.83;;;;;;;9.66;51.18;101388.44;6267877;22;20011;-77
2021/04/22 08:45:04;;;;;;;3.53;1.42;;;;;;;9.89;50.66;101388.44;6263914;22;20000;-76
2021/04/22 08:47:35;;;;;;;2.80;1.30;;;;;;;10.02;49.63;101381.09;6273535;22;19996;-77
2021/04/22 08:50:51;;;;;;;8.80;2.08;;;;;;;10.37;49.03;101411.13;6264395;22;20465;-76
2021/04/22 08:53:46;;;;;;;8.35;1.67;;;;;;;10.68;48.75;101394.53;6250097;22;20077;-75
2021/04/22 08:56:41;;;;;;;9.68;1.95;;;;;;;11.20;48.99;101377.13;6254274;22;20058;-76
2021/04/22 08:59:29;;;;;;;9.07;1.23;;;;;;;12.03;47.62;101411.13;6269027;22;20004;-76
2021/04/22 09:01:55;;;;;;;9.90;2.03;;;;;;;12.42;45.78;101403.97;6248148;22;20003;-76
2021/04/22 09:04:33;;;;;;;;;;;;;;;;;;;;;
2021/04/22 09:07:02;;;;;;;4.18;1.80;;;;;;;12.87;43.72;101375.41;6271991;22;20083;-76
2021/04/22 09:10:13;;;;;;;2.95;1.48;;;;;;;13.37;43.13;101409.97;6272780;22;20000;-76
2021/04/22 09:12:42;;;;;;;7.07;1.52;;;;;;;13.48;42.39;101397.19;6261667;22;20078;-76
2021/04/22 09:15:37;;;;;;;8.10;1.05;;;;;;;14.09;42.18;101409.69;6273903;22;20431;-76
2021/04/22 09:18:28;;;;;;;;;;;;;;;;;;;;;
2021/04/22 09:21:02;;;;;;;1.70;1.23;;;;;;;15.56;41.97;101403.31;6273616;22;20497;-77
2021/04/22 09:23:30;;;;;;;8.45;1.38;;;;;;;16.41;42.03;101383.28;6249454;22;20000;-77
2021/04/22 09:26:26;;;;;;;4.82;1.63;;;;;;;17.61;39.05;101413.53;6272579;22;20007;-76
2021/04/22 09:29:04;;;;;;;3.80;1.63;;;;;;;18.83;38.65;101395.88;6244424;22;20008;-77
2021/04/22 09:31:43;;;;;;;;;;;;;;;;;;;;;
2021/04/22 09:34:27;;;;;;;;;;;;;;;;;;;;;
2021/04/22 09:36:56;;;;;;;3.65;1.60;;;;;;;21.69;32.55;101419.59;6276166;22;20074;-76
2021/04/22 09:39:26;;;;;;;5.35;1.70;;;;;;;22.37;31.31;101425.03;6248435;22;20067;-76
2021/04/22 09:42:19;;;;;;;4.93;0.98;;;;;;;23.29;30.94;101401.94;6271636;22;20404;-77
2021/04/22 09:44:52;;;;;;;1.48;0.90;;;;;;;24.12;28.90;101416.72;6274458;22;20007;-77
2021/04/22 09:47:43;;;;;;;;;;;;;;;;;;;;;
2021/04/22 09:50:14;;;;;;;3.17;1.20;;;;;;;25.67;27.25;101402.34;6276855;22;20098;-78
2021/04/22 09:52:48;;;;;;;5.70;1.13;;;;;;;26.52;27.20;101422.44;6251651;22;20003;-78
2021/04/22 09:55:16;;;;;;;4.22;1.40;;;;;;;26.87;24.51;101431.22;6278047;22;20311;-77
2021/04/22 09:57:43;;;;;;;4.47;1.88;;;;;;;27.11;22.87;101426.72;6249742;22;20099;-78
2021/04/22 10:00:26;;;;;;;2.00;1.27;;;;;;;27.57;22.92;101421.66;6244742;22;20011;-78
2021/04/22 10:03:08;;;;;;;7.85;1.90;;;;;;;27.86;21.80;101416.81;6270052;22;20429;-76
2021/04/22 10:05:58;;;;;;;3.03;1.60;;;;;;;28.28;21.74;101421.13;6275298;22;20004;-77
2021/04/22 10:08:42;;;;;;;1.98;1.00;;;;;;;28.88;21.47;101413.34;6273194;22;20027;-76
2021/04/22 10:11:23;;;;;;;3.88;1.48;;;;;;;29.42;19.76;101414.50;6246945;22;20054;-76
2021/04/22 10:13:52;;;;;;;5.03;2.00;;;;;;;29.55;19.20;101426.41;6276349;22;20003;-77
2021/04/22 10:16:17;;;;;;;5.53;1.40;;;;;;;29.86;19.29;101432.25;6267917;22;20133;-75
2021/04/22 10:18:45;;;;;;;1.73;1.10;;;;;;;30.16;17.93;101437.22;6269419;22;20039;-76
2021/04/22 10:21:21;;;;;;;0.80;0.70;;;;;;;30.68;18.99;101421.56;6258028;22;20422;-76
2021/04/22 10:23:54;;;;;;;2.38;0.85;;;;;;;31.25;18.00;101424.38;6243029;22;20652;-76
2021/04/22 10:26:29;;;;;;;3.63;2.30;;;;;;;31.58;16.07;101430.41;6221848;22;20055;-78
2021/04/22 10:29:19;;;;;;;2.60;1.52;;;;;;;31.50;14.78;101407.69;6271714;22;20030;-76
2021/04/22 10:31:52;;;;;;;4.57;1.60;;;;;;;31.18;15.32;101407.34;6272476;22;20007;-75
2021/04/22 10:34:40;;;;;;;;;;;;;;;;;;;;;
2021/04/22 10:37:05;;;;;;;2.92;1.00;;;;;;;32.08;15.39;101419.63;6272565;22;20000;-76
2021/04/22 10:39:31;;;;;;;3.25;1.10;;;;;;;32.35;15.84;101410.97;6247462;22;20004;-76
2021/04/22 10:41:59;;;;;;;1.10;0.73;;;;;;;33.03;15.54;101411.41;6248837;22;20012;-75
2021/04/22 10:44:25;;;;;;;3.03;1.30;;;;;;;33.14;13.98;101417.09;6272694;22;20042;-74
2021/04/22 10:47:01;;;;;;;;;;;;;;;;;;;;;
2021/04/22 10:49:32;;;;;;;2.38;1.50;;;;;;;33.30;13.29;101430.16;6266132;22;20090;-78
2021/04/22 10:52:01;;;;;;;3.33;1.40;;;;;;;33.36;13.04;101422.88;6247134;22;20014;-78
2021/04/22 10:54:34;;;;;;;4.07;1.63;;;;;;;33.47;12.93;101406.72;6244208;22;20003;-76
2021/04/22 10:57:20;;;;;;;2.28;1.70;;;;;;;33.87;12.36;101415.34;6274271;22;19999;-78
2021/04/22 11:00:07;;;;;;;3.03;1.42;;;;;;;34.09;12.30;101410.47;6245880;22;20433;-76
2021/04/22 11:02:48;;;;;;;5.90;1.38;;;;;;;34.57;12.45;101397.91;6272700;22;20022;-76
2021/04/22 11:05:33;;;;;;;3.60;1.08;;;;;;;35.35;11.73;101406.59;6247027;22;20055;-77
2021/04/22 11:08:04;;;;;;;3.15;1.40;;;;;;;35.39;11.92;101396.81;6245606;22;20016;-76
2021/04/22 11:11:00;;;;;;;2.08;1.15;;;;;;;35.78;11.05;101409.97;6273845;22;20062;-79
2021/04/22 11:13:32;;;;;;;3.58;1.23;;;;;;;35.84;10.76;101390.44;6270366;22;20008;-80
2021/04/22 11:16:16;;;;;;;;;;;;;;;;;;;;;
2021/04/22 11:18:52;;;;;;;5.05;1.20;;;;;;;35.62;10.64;101413.31;6267032;22;20090;-77
2021/04/22 11:21:33;;;;;;;1.80;1.40;;;;;;;35.99;10.94;101406.16;6245802;22;20325;-77
2021/04/22 11:24:51;;;;;;;;;;;;;;;;;;;;;
2021/04/22 11:27:18;;;;;;;6.30;1.77;;;;;;;36.56;9.80;101401.19;6266698;22;20458;-77
2021/04/22 11:29:57;;;;;;;2.95;1.45;;;;;;;36.89;9.62;101413.06;6264458;22;19999;-78
2021/04/22 11:32:39;;;;;;;0.98;0.88;;;;;;;37.43;10.67;101415.25;6273514;22;20166;-77
2021/04/22 11:35:04;;;;;;;1.60;1.02;;;;;;;38.28;10.08;101396.41;6241138;22;20387;-77
2021/04/22 11:37:42;;;;;;;1.95;1.02;;;;;;;38.64;9.16;101399.41;6247700;22;20031;-78
2021/04/22 11:40:22;;;;;;;1.52;0.98;;;;;;;39.13;8.91;101400.91;6267450;22;20000;-78
2021/04/22 11:42:59;;;;;;;5.38;2.28;;;;;;;38.90;8.25;101394.00;6268792;22;20365;-77
2021/04/22 11:45:40;;;;;;;2.05;1.55;;;;;;;38.66;8.15;101396.94;6274232;22;20004;-77
2021/04/22 11:48:12;;;;;;;2.22;1.10;;;;;;;38.42;8.56;101391.25;6277936;22;20008;-78
2021/04/22 11:50:42;;;;;;;3.80;1.17;;;;;;;38.81;9.28;101408.06;6282659;22;20024;-77
2021/04/22 11:53:14;;;;;;;1.67;1.27;;;;;;;39.19;8.87;101399.13;6267886;22;20051;-77
2021/04/22 11:55:52;;;;;;;5.82;1.55;;;;;;;39.66;8.01;101393.16;6270465;22;20011;-77
2021/04/22 11:58:22;;;;;;;1.40;1.02;;;;;;;39.23;7.85;101399.88;6262765;22;20007;-76
2021/04/22 12:00:54;;;;;;;7.00;1.52;;;;;;;39.50;7.81;101393.13;6271107;22;20048;-76
2021/04/22 12:03:28;;;;;;;1.67;0.85;;;;;;;39.90;8.20;101401.59;6292075;22;20433;-78
2021/04/22 12:05:55;;;;;;;3.50;1.65;;;;;;;39.92;7.30;101387.63;6272715;22;20000;-77
2021/04/22 12:08:38;;;;;;;6.10;1.38;;;;;;;40.00;7.27;101400.50;6214798;22;20004;-77
2021/04/22 12:11:20;;;;;;;2.63;1.40;;;;;;;39.89;7.84;101394.25;6274392;22;20418;-77
2021/04/22 12:13:49;;;;;;;1.50;0.77;;;;;;;40.63;7.72;101379.22;6268629;22;20098;-79
2021/04/22 12:16:20;;;;;;;1.10;1.00;;;;;;;40.99;7.24;101372.44;6274683;22;20322;-76
2021/04/22 12:18:56;;;;;;;5.68;1.17;;;;;;;41.08;6.86;101368.91;6268713;22;20366;-77
2021/04/22 12:21:27;;;;;;;2.38;1.40;;;;;;;40.96;6.80;101367.63;6203111;22;20008;-77
2021/04/22 12:24:23;;;;;;;2.33;1.42;;;;;;;40.92;6.85;101389.88;6266473;22;20088;-77
2021/04/22 12:26:51;;;;;;;2.88;0.98;;;;;;;41.32;7.36;101372.28;6267528;22;20057;-78
2021/04/22 12:29:44;;;;;;;3.00;1.27;;;;;;;41.93;6.55;101362.94;6251245;22;20429;-78
2021/04/22 12:32:14;;;;;;;1.63;1.42;;;;;;;42.09;6.58;101374.28;6274846;22;20010;-78
2021/04/22 12:35:11;;;;;;;2.60;1.73;;;;;;;41.90;5.92;101369.59;6270727;22;20027;-77
2021/04/22 12:37:42;;;;;;;1.23;0.82;;;;;;;42.07;6.33;101355.88;6252684;22;20019;-78
2021/04/22 12:40:33;;;;;;;1.70;1.30;;;;;;;42.61;6.04;101362.59;6240323;22;20003;-78
2021/04/22 12:43:03;;;;;;;1.83;1.50;;;;;;;42.60;6.27;101353.19;6253529;22;20010;-77
2021/04/22 12:45:39;;;;;;;;;;;;;;;;;;;;;
2021/04/22 12:48:25;;;;;;;1.17;1.02;;;;;;;43.70;6.48;101362.84;6276952;22;20174;-77
2021/04/22 12:51:41;;;;;;;;;;;;;;;;;;;;;
2021/04/22 12:54:09;;;;;;;1.83;1.17;;;;;;;44.53;4.98;101365.84;6300644;22;20075;-79
2021/04/22 12:57:09;;;;;;;1.48;1.17;;;;;;;44.34;4.90;101352.72;6271829;22;20652;-78
2021/04/22 12:59:56;;;;;;;1.20;1.02;;;;;;;44.10;4.97;101361.97;6306291;22;20428;-77
2021/04/22 13:02:27;;;;;;;5.40;1.10;;;;;;;44.04;4.81;101352.38;6302620;22;20040;-77
2021/04/22 13:05:22;;;;;;;1.60;1.00;;;;;;;44.42;4.91;101343.28;6304730;22;20037;-77
2021/04/22 13:07:51;;;;;;;1.08;0.70;;;;;;;44.62;5.58;101354.28;6260923;22;20059;-77
2021/04/22 13:10:27;;;;;;;1.70;1.08;;;;;;;45.13;4.93;101364.28;6252121;22;20003;-76
2021/04/22 13:13:14;;;;;;;1.48;1.05;;;;;;;45.44;4.83;101356.63;6303265;22;20007;-77
2021/04/22 13:15:46;;;;;;;1.08;0.73;;;;;;;45.71;4.46;101358.56;6234532;22;20015;-77
2021/04/22 13:18:38;;;;;;;5.53;1.00;;;;;;;45.59;4.18;101365.38;6277266;22;20014;-77
2021/04/22 13:21:05;;;;;;;1.30;0.90;;;;;;;45.12;4.07;101354.06;6311672;22;20448;-78
2021/04/22 13:23:37;;;;;;;3.25;0.88;;;;;;;45.17;4.20;101349.69;6311624;22;20007;-76
2021/04/22 13:26:29;;;;;;;2.20;1.13;;;;;;;44.92;3.61;101351.69;6287127;22;20022;-77
2021/04/22 13:29:11;;;;;;;1.45;1.00;;;;;;;44.64;4.06;101353.03;6311536;22;20129;-76
2021/04/22 13:31:38;;;;;;;4.28;1.05;;;;;;;44.76;4.60;101343.38;6306462;22;20075;-79
2021/04/22 13:34:25;;;;;;;;;;;;;;;;;;;;;